Volaris-54 — V4TJ2 — position and weather

sailwx.info

Track history (hours):
 
Tides and Currents Weather Stations Pressure Air Temp Water Temp Dewpoint Dewpoint Depression Visibility Wind Speed Wind Dir Waves Ship Positions

Volaris-54

Last reported at 2018-Jun-21 10:50 UTC. Time now 2018-Jun-21 16:28 UTC.
Position N 45°25' E 036°41'.

Length 140 m; draft 3.1 m.

Type: Cargo ship. MMSI: 341140000.

Date/timePositionNaut miles runAvg speedWind from/ knotsBaromVisibWave heightAir tempDewpointWater temp
2018-Jun-21 10:50N 45°25' E 036°41'3 8.3
2018-Jun-21 10:29N 45°22' E 036°40'3 6.8
2018-Jun-21 10:00N 45°20' E 036°36'7 7.4
2018-Jun-21 09:06N 45°16' E 036°29'1 4.3
2018-Jun-21 08:53N 45°15' E 036°28'2 3.2
2018-Jun-21 08:18N 45°13' E 036°29'2 0.6
2018-Jun-21 05:14N 45°12' E 036°30'0 0.0
2018-Jun-21 05:00N 45°12' E 036°30'1 0.7
2018-Jun-21 03:45N 45°11' E 036°30'3 8.8
2018-Jun-21 03:25N 45°08' E 036°30'4 8.7
2018-Jun-21 02:58N 45°04' E 036°31'80 8.7
2018-Jun-20 17:47N 43°53' E 037°22'2 8.0
2018-Jun-20 17:29N 43°51' E 037°24'4 7.8
2018-Jun-20 17:00N 43°48' E 037°27'6 7.8
2018-Jun-20 16:11N 43°42' E 037°32'1 8.0
2018-Jun-20 16:00N 43°41' E 037°33'5 8.1
2018-Jun-20 15:23N 43°37' E 037°37'4 8.3
2018-Jun-20 14:54N 43°34' E 037°40'  
2018-Jun-14 07:10N 42°48' E 038°11'1 8.1
2018-Jun-14 06:59N 42°49' E 038°10'4 8.2
2018-Jun-14 06:30N 42°53' E 038°08'29 8.5
2018-Jun-14 03:04N 43°18' E 037°47'1 8.4
2018-Jun-14 02:57N 43°18' E 037°47'5 8.4
2018-Jun-14 02:19N 43°23' E 037°43'3 8.4
2018-Jun-14 01:57N 43°26' E 037°40'12 8.3
2018-Jun-14 00:32N 43°35' E 037°32'0 8.2
2018-Jun-14 00:29N 43°36' E 037°32'36 8.0
2018-Jun-13 20:02N 44°07' E 037°06'1 8.0
2018-Jun-13 19:55N 44°07' E 037°06'3 7.8
2018-Jun-13 19:29N 44°10' E 037°03'4 7.7
2018-Jun-13 18:59N 44°13' E 037°00'4 7.8
2018-Jun-13 18:30N 44°17' E 036°57'6 7.8
2018-Jun-13 17:41N 44°22' E 036°52'2 7.8
2018-Jun-13 17:30N 44°23' E 036°51'4 7.8
2018-Jun-13 17:00N 44°26' E 036°48'16 8.2
2018-Jun-13 15:04N 44°40' E 036°37'2 8.2
2018-Jun-13 14:48N 44°42' E 036°35'3 8.2
2018-Jun-13 14:27N 44°44' E 036°33'13 7.3
2018-Jun-13 12:38N 44°57' E 036°29'1 7.6
2018-Jun-13 12:29N 44°58' E 036°29'4 7.7
2018-Jun-13 11:58N 45°02' E 036°30'6 7.8
2018-Jun-13 11:12N 45°08' E 036°29'3 7.7
2018-Jun-13 10:49N 45°11' E 036°28'3 7.7
2018-Jun-13 10:30N 45°14' E 036°28'4 7.3
2018-Jun-13 09:59N 45°17' E 036°29'3 6.4
2018-Jun-13 09:30N 45°19' E 036°32'4 7.6
2018-Jun-13 09:01N 45°21' E 036°37'3 6.6
2018-Jun-13 08:29N 45°23' E 036°40'3 6.3
2018-Jun-13 08:00N 45°26' E 036°40'3 5.3
2018-Jun-13 07:30N 45°28' E 036°38'0 0.2
2018-Jun-13 07:00N 45°28' E 036°38'1 2.9
2018-Jun-13 06:31N 45°29' E 036°39'4 8.2
2018-Jun-13 05:59N 45°32' E 036°44'8 8.0
2018-Jun-13 04:58N 45°40' E 036°49'  
Track history (hours):
 
Tides and Currents Weather Stations Pressure Air Temp Water Temp Dewpoint Dewpoint Depression Visibility Wind Speed Wind Dir Waves Ship Positions

Volaris-54

Last reported at 2018-Jun-21 10:50 UTC. Time now 2018-Jun-21 16:28 UTC.
Position N 45°25' E 036°41'.

Length 140 m; draft 3.1 m.

Type: Cargo ship. MMSI: 341140000.

Date/timePositionNaut miles runAvg speedWind from/ knotsBaromVisibWave heightAir tempDewpointWater temp
2018-Jun-21 10:50N 45°25' E 036°41'3 8.3
2018-Jun-21 10:29N 45°22' E 036°40'3 6.8
2018-Jun-21 10:00N 45°20' E 036°36'7 7.4
2018-Jun-21 09:06N 45°16' E 036°29'1 4.3
2018-Jun-21 08:53N 45°15' E 036°28'2 3.2
2018-Jun-21 08:18N 45°13' E 036°29'2 0.6
2018-Jun-21 05:14N 45°12' E 036°30'0 0.0
2018-Jun-21 05:00N 45°12' E 036°30'1 0.7
2018-Jun-21 03:45N 45°11' E 036°30'3 8.8
2018-Jun-21 03:25N 45°08' E 036°30'4 8.7
2018-Jun-21 02:58N 45°04' E 036°31'80 8.7
2018-Jun-20 17:47N 43°53' E 037°22'2 8.0
2018-Jun-20 17:29N 43°51' E 037°24'4 7.8
2018-Jun-20 17:00N 43°48' E 037°27'6 7.8
2018-Jun-20 16:11N 43°42' E 037°32'1 8.0
2018-Jun-20 16:00N 43°41' E 037°33'5 8.1
2018-Jun-20 15:23N 43°37' E 037°37'4 8.3
2018-Jun-20 14:54N 43°34' E 037°40'  
2018-Jun-14 07:10N 42°48' E 038°11'1 8.1
2018-Jun-14 06:59N 42°49' E 038°10'4 8.2
2018-Jun-14 06:30N 42°53' E 038°08'29 8.5
2018-Jun-14 03:04N 43°18' E 037°47'1 8.4
2018-Jun-14 02:57N 43°18' E 037°47'5 8.4
2018-Jun-14 02:19N 43°23' E 037°43'3 8.4
2018-Jun-14 01:57N 43°26' E 037°40'12 8.3
2018-Jun-14 00:32N 43°35' E 037°32'0 8.2
2018-Jun-14 00:29N 43°36' E 037°32'36 8.0
2018-Jun-13 20:02N 44°07' E 037°06'1 8.0
2018-Jun-13 19:55N 44°07' E 037°06'3 7.8
2018-Jun-13 19:29N 44°10' E 037°03'4 7.7
2018-Jun-13 18:59N 44°13' E 037°00'4 7.8
2018-Jun-13 18:30N 44°17' E 036°57'6 7.8
2018-Jun-13 17:41N 44°22' E 036°52'2 7.8
2018-Jun-13 17:30N 44°23' E 036°51'4 7.8
2018-Jun-13 17:00N 44°26' E 036°48'16 8.2
2018-Jun-13 15:04N 44°40' E 036°37'2 8.2
2018-Jun-13 14:48N 44°42' E 036°35'3 8.2
2018-Jun-13 14:27N 44°44' E 036°33'13 7.3
2018-Jun-13 12:38N 44°57' E 036°29'1 7.6
2018-Jun-13 12:29N 44°58' E 036°29'4 7.7
2018-Jun-13 11:58N 45°02' E 036°30'6 7.8
2018-Jun-13 11:12N 45°08' E 036°29'3 7.7
2018-Jun-13 10:49N 45°11' E 036°28'3 7.7
2018-Jun-13 10:30N 45°14' E 036°28'4 7.3
2018-Jun-13 09:59N 45°17' E 036°29'3 6.4
2018-Jun-13 09:30N 45°19' E 036°32'4 7.6
2018-Jun-13 09:01N 45°21' E 036°37'3 6.6
2018-Jun-13 08:29N 45°23' E 036°40'3 6.3
2018-Jun-13 08:00N 45°26' E 036°40'3 5.3
2018-Jun-13 07:30N 45°28' E 036°38'0 0.2
2018-Jun-13 07:00N 45°28' E 036°38'1 2.9
2018-Jun-13 06:31N 45°29' E 036°39'4 8.2
2018-Jun-13 05:59N 45°32' E 036°44'8 8.0
2018-Jun-13 04:58N 45°40' E 036°49'  

Dump ship's entire track history